Kezdőlap
METAR-TAF:

METAR-TAF

Repülőterek :

Kristiansand, Norvégia

földrajzi szélesség: 58-12N, földrajzi hosszúság: 008-05E, magasság: 1 m

Jelenlegi meteorológiai megfigyelések

A jelentés 38 perccel ezelõtt készült, 10:20 UTC
Északkeleti szél 7 kt
Hőmérséklet 5°C
Páratartalom 87%
Légköri nyomás 1004 hPa
Látótávolság 10 km, vagy több
Szórványos felhőzet 900 lábon
Szakadozott felhőzet 1100 lábon

METAR: ENCN 251020Z 05007KT 9999 SCT009 BKN011 05/03 Q1004

Idő: 12:58 (10:58 UTC)

Előrejelzés

A jelentés 2 órával és 58 perccel ezelõtt készült, 08:00 UTC
Az előrejelzés 25-én 09 óra UTC és 25-én 18 óra UTC között érvényes
Északkeleti szél 8 kt
Látótávolság 10 km, vagy több
Szakadozott felhőzet 3000 lábon
25-én 09 óra UTC és 25-én 12 óra UTC között ideiglenes
Szakadozott felhőzet 800 lábon
Szórványos felhőzet 3000 lábon, Cumulonimbus.
záporok,

TAF: ENCN 250800Z 2509/2518 05008KT 9999 BKN030 TEMPO 2509/2512 SHRA BKN008 SCT030CB

Meteorológiai megfigyelések és előrejelzések több, mint 4000 repülőtéren (METAR és TAF jelentéseket).

A térképen piros és sárga pontok jelzik az elérhető meteorológiai állomásokat.

Mozgassa az egeret a pont fölött, hogy megjelenjen az állomás neve.

Azután kattintson az időjárási megfigyelések és előrejelzések megtekintéséhez.

A térkép megváltoztatása: kattintson a fekete keresztel jelölt zöld gombra ráközelítéshez, a vonallal jelölt zöld gombra távolításhoz, vagy a zöld nyilakra a szomszédos térképek eléréséhez.


METAR-TAF: